createdAt,value
2023-03-19T00:00:29.643Z,16.37
2023-03-19T00:02:56.548Z,16.24
2023-03-19T00:05:23.367Z,16.18
2023-03-19T00:07:50.124Z,16.19
2023-03-19T00:10:16.893Z,16.20
2023-03-19T00:12:43.631Z,16.22
2023-03-19T00:15:14.451Z,16.26
2023-03-19T00:17:44.694Z,16.29
2023-03-19T00:20:12.812Z,16.30
2023-03-19T00:22:40.078Z,16.33
2023-03-19T00:25:08.664Z,16.36
2023-03-19T00:27:37.434Z,16.32
2023-03-19T00:30:06.449Z,16.30
2023-03-19T00:32:34.225Z,16.31
2023-03-19T00:35:01.482Z,16.34
2023-03-19T00:37:28.564Z,16.34
2023-03-19T00:39:56.169Z,16.30
2023-03-19T00:42:23.118Z,16.36
2023-03-19T00:44:49.885Z,16.36
2023-03-19T00:47:16.866Z,16.34
2023-03-19T00:49:43.822Z,16.34
2023-03-19T00:52:10.832Z,16.39
2023-03-19T00:54:40.252Z,16.39
2023-03-19T00:57:07.854Z,16.29
2023-03-19T00:59:34.676Z,16.32
2023-03-19T01:02:02.292Z,16.35
2023-03-19T01:04:29.175Z,16.36
2023-03-19T01:06:56.276Z,16.38
2023-03-19T01:09:23.454Z,16.29
2023-03-19T01:11:50.394Z,16.28
2023-03-19T01:14:17.905Z,16.17
2023-03-19T01:16:45.155Z,16.29
2023-03-19T01:19:13.697Z,16.27
2023-03-19T01:21:41.064Z,16.23
2023-03-19T01:24:07.827Z,16.24
2023-03-19T01:26:34.628Z,16.24
2023-03-19T01:29:17.854Z,16.21
2023-03-19T01:31:44.991Z,16.12
2023-03-19T01:34:43.998Z,16.08
2023-03-19T01:37:14.477Z,16.12
2023-03-19T01:39:42.794Z,16.09
2023-03-19T01:42:14.823Z,16.10
2023-03-19T01:44:58.573Z,16.09
2023-03-19T01:47:48.343Z,16.10
2023-03-19T01:50:42.194Z,16.09
2023-03-19T01:53:33.083Z,16.07
2023-03-19T01:56:21.853Z,16.12
2023-03-19T01:59:25.704Z,16.09
2023-03-19T02:02:31.562Z,16.11
2023-03-19T02:05:11.400Z,15.96
2023-03-19T02:07:41.357Z,15.86
2023-03-19T02:10:11.933Z,15.77
2023-03-19T02:12:39.056Z,15.76
2023-03-19T02:15:07.318Z,15.77
2023-03-19T02:17:34.581Z,15.73
2023-03-19T02:20:12.912Z,15.70
2023-03-19T02:22:44.410Z,15.63
2023-03-19T02:25:29.723Z,15.62
2023-03-19T02:27:57.613Z,15.67
2023-03-19T02:30:31.939Z,15.67
2023-03-19T02:33:05.021Z,15.72
2023-03-19T02:35:34.759Z,15.75
2023-03-19T02:38:04.331Z,15.80
2023-03-19T02:40:38.444Z,15.87
2023-03-19T02:43:05.363Z,15.87
2023-03-19T02:45:32.741Z,15.87
2023-03-19T02:48:00.081Z,15.88
2023-03-19T02:50:27.443Z,15.83
2023-03-19T02:52:54.544Z,15.85
2023-03-19T02:55:22.217Z,15.82
2023-03-19T02:57:49.045Z,15.81
2023-03-19T03:00:18.761Z,15.78
2023-03-19T03:02:46.016Z,15.80
2023-03-19T03:05:14.368Z,15.80
2023-03-19T03:07:43.866Z,15.83
2023-03-19T03:10:11.819Z,15.84
2023-03-19T03:12:38.966Z,15.86
2023-03-19T03:15:09.398Z,15.87
2023-03-19T03:17:40.795Z,15.88
2023-03-19T03:20:11.545Z,15.91
2023-03-19T03:22:39.379Z,15.92
2023-03-19T03:25:07.369Z,15.93
2023-03-19T03:27:34.153Z,15.93
2023-03-19T03:30:00.990Z,15.95
2023-03-19T03:32:27.887Z,15.96
2023-03-19T03:34:54.643Z,16.00
2023-03-19T03:37:21.480Z,16.02
2023-03-19T03:39:48.319Z,16.02
2023-03-19T03:42:15.443Z,16.04
2023-03-19T03:44:42.318Z,16.03
2023-03-19T03:47:09.427Z,16.05
2023-03-19T03:49:36.318Z,15.96
2023-03-19T03:52:03.329Z,15.99
2023-03-19T03:54:34.022Z,16.00
2023-03-19T03:57:03.338Z,15.96
2023-03-19T03:59:31.191Z,15.90
2023-03-19T04:01:58.082Z,15.90
2023-03-19T04:04:25.527Z,15.83
2023-03-19T04:06:52.545Z,15.85
2023-03-19T04:09:28.764Z,15.86
2023-03-19T04:11:55.666Z,15.86
2023-03-19T04:14:22.502Z,15.81
2023-03-19T04:16:49.409Z,15.82
2023-03-19T04:19:17.002Z,15.78
2023-03-19T04:21:44.982Z,15.71
2023-03-19T04:24:12.062Z,15.63
2023-03-19T04:26:39.414Z,15.71
2023-03-19T04:29:08.503Z,15.73
2023-03-19T04:31:35.792Z,15.75
2023-03-19T04:34:02.673Z,15.78
2023-03-19T04:36:29.625Z,15.78
2023-03-19T04:38:56.932Z,15.76
2023-03-19T04:41:23.851Z,15.63
2023-03-19T04:44:09.606Z,15.61
2023-03-19T04:46:39.507Z,15.59
2023-03-19T04:49:06.321Z,15.62
2023-03-19T04:51:33.225Z,15.52
2023-03-19T04:54:00.448Z,15.56
2023-03-19T04:56:27.868Z,15.58
2023-03-19T04:58:55.203Z,15.54
2023-03-19T05:01:21.991Z,15.54
2023-03-19T05:04:01.493Z,15.52
2023-03-19T05:06:29.094Z,15.53
2023-03-19T05:08:55.906Z,15.55
2023-03-19T05:11:23.640Z,15.56
2023-03-19T05:14:10.650Z,15.56
2023-03-19T05:16:56.006Z,15.56
2023-03-19T05:19:25.273Z,15.58
2023-03-19T05:21:53.337Z,15.56
2023-03-19T05:24:25.143Z,15.53
2023-03-19T05:26:53.320Z,15.52
2023-03-19T05:29:27.979Z,15.50
2023-03-19T05:32:14.582Z,15.48
2023-03-19T05:34:42.430Z,15.50
2023-03-19T05:37:09.703Z,15.49
2023-03-19T05:39:37.335Z,15.52
2023-03-19T05:42:08.276Z,15.50
2023-03-19T05:44:35.519Z,15.52
2023-03-19T05:47:37.735Z,15.45
2023-03-19T05:50:06.018Z,15.42
2023-03-19T05:52:32.946Z,15.44
2023-03-19T05:55:00.670Z,15.42
2023-03-19T05:57:38.576Z,15.39
2023-03-19T06:00:19.692Z,15.25
2023-03-19T06:02:48.396Z,15.23
2023-03-19T06:05:33.694Z,15.09
2023-03-19T06:08:20.709Z,15.09
2023-03-19T06:11:13.544Z,15.11
2023-03-19T06:13:43.472Z,15.10
2023-03-19T06:16:14.631Z,15.04
2023-03-19T06:18:48.252Z,14.96
2023-03-19T06:21:16.569Z,15.03
2023-03-19T06:23:44.118Z,15.10
2023-03-19T06:26:13.706Z,15.13
2023-03-19T06:28:52.557Z,15.15
2023-03-19T06:31:19.982Z,15.18
2023-03-19T06:33:52.638Z,15.20
2023-03-19T06:36:19.958Z,15.21
2023-03-19T06:38:47.796Z,15.22
2023-03-19T06:41:14.623Z,15.24
2023-03-19T06:43:42.351Z,15.25
2023-03-19T06:46:11.530Z,15.29
2023-03-19T06:48:38.691Z,15.33
2023-03-19T06:51:05.966Z,15.33
2023-03-19T06:53:32.739Z,15.09
2023-03-19T06:55:59.537Z,15.05
2023-03-19T06:58:27.054Z,15.03
2023-03-19T07:00:53.817Z,14.97
2023-03-19T07:03:20.687Z,14.95
2023-03-19T07:05:51.166Z,14.90
2023-03-19T07:08:18.079Z,14.93
2023-03-19T07:10:44.915Z,15.04
2023-03-19T07:13:11.853Z,15.10
2023-03-19T07:15:38.597Z,15.23
2023-03-19T07:18:05.716Z,15.27
2023-03-19T07:20:33.502Z,15.27
2023-03-19T07:23:00.536Z,15.38
2023-03-19T07:25:27.464Z,15.47
2023-03-19T07:27:56.077Z,15.55
2023-03-19T07:30:24.286Z,15.63
2023-03-19T07:32:51.180Z,15.69
2023-03-19T07:35:18.179Z,15.80
2023-03-19T07:37:45.037Z,15.83
2023-03-19T07:40:12.184Z,15.94
2023-03-19T07:42:39.022Z,15.96
2023-03-19T07:45:06.353Z,15.92
2023-03-19T07:47:33.321Z,15.97
2023-03-19T07:50:00.087Z,15.98
2023-03-19T07:52:27.611Z,16.08
2023-03-19T07:54:54.448Z,16.20
2023-03-19T07:57:21.298Z,16.21
2023-03-19T07:59:48.077Z,16.21
2023-03-19T08:02:14.929Z,16.25
2023-03-19T08:04:42.190Z,16.28
2023-03-19T08:07:11.193Z,16.27
2023-03-19T08:09:38.047Z,16.32
2023-03-19T08:12:05.474Z,16.38
2023-03-19T08:14:33.152Z,16.45
2023-03-19T08:17:00.336Z,16.51
2023-03-19T08:19:28.267Z,16.57
2023-03-19T08:21:55.060Z,16.61
2023-03-19T08:24:21.915Z,16.69
2023-03-19T08:26:48.734Z,16.73
2023-03-19T08:29:17.290Z,16.80
2023-03-19T08:31:45.439Z,17.06
2023-03-19T08:34:12.187Z,17.19
2023-03-19T08:36:39.092Z,17.45
2023-03-19T08:39:05.880Z,17.57
2023-03-19T08:41:32.670Z,17.69
2023-03-19T08:43:59.426Z,17.73
2023-03-19T08:46:27.696Z,17.75
2023-03-19T08:48:54.705Z,17.76
2023-03-19T08:51:22.061Z,17.76
2023-03-19T08:53:48.800Z,17.76
2023-03-19T08:56:15.547Z,17.86
2023-03-19T08:58:42.807Z,17.66
2023-03-19T09:01:11.954Z,17.72
2023-03-19T09:03:40.293Z,17.73
2023-03-19T09:06:09.646Z,17.63
2023-03-19T09:08:37.331Z,17.70
2023-03-19T09:11:05.782Z,17.78
2023-03-19T09:13:33.137Z,17.81
2023-03-19T09:16:00.078Z,17.82
2023-03-19T09:18:27.194Z,17.88
2023-03-19T09:20:54.594Z,17.95
2023-03-19T09:23:22.350Z,18.08
2023-03-19T09:25:49.586Z,18.23
2023-03-19T09:28:16.753Z,18.40
2023-03-19T09:30:46.825Z,18.54
2023-03-19T09:33:14.209Z,18.70
2023-03-19T09:35:41.014Z,18.77
2023-03-19T09:38:08.097Z,18.92
2023-03-19T09:40:47.147Z,19.01
2023-03-19T09:43:38.708Z,19.14
2023-03-19T09:46:13.808Z,19.30
2023-03-19T09:48:48.437Z,19.41
2023-03-19T09:51:22.469Z,19.54
2023-03-19T09:54:04.544Z,19.68
2023-03-19T09:56:32.689Z,19.76
2023-03-19T09:58:59.930Z,19.76
2023-03-19T10:01:41.481Z,19.81
2023-03-19T10:04:42.594Z,19.89
2023-03-19T10:07:52.681Z,19.91
2023-03-19T10:10:31.210Z,19.86
2023-03-19T10:13:31.903Z,19.92
2023-03-19T10:16:01.623Z,19.92
2023-03-19T10:18:34.677Z,19.96
2023-03-19T10:21:20.146Z,19.98
2023-03-19T10:24:05.052Z,20.07
2023-03-19T10:26:35.884Z,20.02
2023-03-19T10:29:16.566Z,19.73
2023-03-19T10:32:07.531Z,19.70
2023-03-19T10:34:37.806Z,19.62
2023-03-19T10:37:13.579Z,19.39
2023-03-19T10:39:43.189Z,19.50
2023-03-19T10:42:39.415Z,19.45
2023-03-19T10:45:15.314Z,19.63
2023-03-19T10:47:43.832Z,19.76
2023-03-19T10:50:19.568Z,19.91
2023-03-19T10:52:51.748Z,19.99
2023-03-19T10:55:25.395Z,20.01
2023-03-19T10:58:03.206Z,20.05
2023-03-19T11:00:35.433Z,20.11
2023-03-19T11:03:05.604Z,20.07
2023-03-19T11:05:34.873Z,20.06
2023-03-19T11:08:03.489Z,20.14
2023-03-19T11:10:33.897Z,20.18
2023-03-19T11:13:06.218Z,20.20
2023-03-19T11:15:37.488Z,20.24
2023-03-19T11:18:44.786Z,20.25
2023-03-19T11:21:31.099Z,20.20
2023-03-19T11:24:03.336Z,20.29
2023-03-19T11:26:31.019Z,20.24
2023-03-19T11:29:04.693Z,20.19
2023-03-19T11:31:50.627Z,20.07
2023-03-19T11:34:41.517Z,19.98
2023-03-19T11:37:29.822Z,20.10
2023-03-19T11:40:02.057Z,20.14
2023-03-19T11:42:50.292Z,20.22
2023-03-19T11:45:26.333Z,20.19
2023-03-19T11:48:06.018Z,20.28
2023-03-19T11:50:35.905Z,20.14
2023-03-19T11:53:27.589Z,20.00
2023-03-19T11:56:15.251Z,19.92
2023-03-19T11:59:01.163Z,19.85
2023-03-19T12:01:39.738Z,19.91
2023-03-19T12:04:45.944Z,19.91
2023-03-19T12:07:43.270Z,19.97
2023-03-19T12:10:48.196Z,20.05
2023-03-19T12:13:25.723Z,20.01
2023-03-19T12:16:16.373Z,19.96
2023-03-19T12:18:57.160Z,19.90
2023-03-19T12:21:24.166Z,19.93
2023-03-19T12:24:04.449Z,20.03
2023-03-19T12:27:00.382Z,19.95
2023-03-19T12:29:45.223Z,19.78
2023-03-19T12:32:35.470Z,19.77
2023-03-19T12:35:09.134Z,19.71
2023-03-19T12:38:01.485Z,19.53
2023-03-19T12:40:37.421Z,19.55
2023-03-19T12:43:14.437Z,19.44
2023-03-19T12:45:58.182Z,19.49
2023-03-19T12:49:09.985Z,19.44
2023-03-19T12:51:45.566Z,19.46
2023-03-19T12:54:18.906Z,19.44
2023-03-19T12:56:51.188Z,19.47
2023-03-19T12:59:30.273Z,19.55
2023-03-19T13:02:11.446Z,19.66
2023-03-19T13:04:53.323Z,19.64
2023-03-19T13:07:40.498Z,19.49
2023-03-19T13:10:17.750Z,19.50
2023-03-19T13:12:46.429Z,19.39
2023-03-19T13:15:22.303Z,19.42
2023-03-19T13:17:55.679Z,19.44
2023-03-19T13:20:44.294Z,19.46
2023-03-19T13:23:24.561Z,19.47
2023-03-19T13:25:54.664Z,19.38
2023-03-19T13:28:31.214Z,19.32
2023-03-19T13:31:05.172Z,19.34
2023-03-19T13:33:35.150Z,19.34
2023-03-19T13:36:05.456Z,19.32
2023-03-19T13:38:41.462Z,19.31
2023-03-19T13:41:39.196Z,19.29
2023-03-19T13:44:32.395Z,19.34
2023-03-19T13:47:23.122Z,19.24
2023-03-19T13:50:10.890Z,19.24
2023-03-19T13:52:46.602Z,19.20
2023-03-19T13:55:28.350Z,19.27
2023-03-19T13:58:16.685Z,19.19
2023-03-19T14:00:43.498Z,19.16
2023-03-19T14:03:22.488Z,19.12
2023-03-19T14:05:53.611Z,19.12
2023-03-19T14:08:24.370Z,19.00
2023-03-19T14:10:54.515Z,19.14
2023-03-19T14:13:34.463Z,19.05
2023-03-19T14:16:17.840Z,19.13
2023-03-19T14:18:44.944Z,19.11
2023-03-19T14:21:18.932Z,19.08
2023-03-19T14:23:55.019Z,19.07
2023-03-19T14:26:29.324Z,18.99
2023-03-19T14:29:04.295Z,19.07
2023-03-19T14:31:33.935Z,18.96
2023-03-19T14:34:19.326Z,18.97
2023-03-19T14:36:54.873Z,19.01
2023-03-19T14:39:25.340Z,18.72
2023-03-19T14:42:15.447Z,18.99
2023-03-19T14:45:14.492Z,18.96
2023-03-19T14:47:50.595Z,18.92
2023-03-19T14:50:35.775Z,18.83
2023-03-19T14:53:15.033Z,18.87
2023-03-19T14:55:42.756Z,18.99
2023-03-19T14:58:12.972Z,19.06
2023-03-19T15:00:49.735Z,18.91
2023-03-19T15:03:33.073Z,19.04
2023-03-19T15:06:02.702Z,19.03
2023-03-19T15:08:32.424Z,19.03
2023-03-19T15:11:14.509Z,19.11
2023-03-19T15:14:16.481Z,19.33
2023-03-19T15:16:46.558Z,19.47
2023-03-19T15:19:17.576Z,19.35
2023-03-19T15:21:44.393Z,19.46
2023-03-19T15:24:16.605Z,19.51
2023-03-19T15:26:43.901Z,19.59
2023-03-19T15:29:13.786Z,19.66
2023-03-19T15:31:57.577Z,19.38
2023-03-19T15:34:31.316Z,19.47
2023-03-19T15:37:04.325Z,19.47
2023-03-19T15:39:38.028Z,19.60
2023-03-19T15:42:05.812Z,19.73
2023-03-19T15:44:58.587Z,19.52
2023-03-19T15:47:31.132Z,19.45
2023-03-19T15:50:12.667Z,19.54
2023-03-19T15:52:43.107Z,19.66
2023-03-19T15:55:12.688Z,19.57
2023-03-19T15:57:41.314Z,19.62
2023-03-19T16:00:10.071Z,19.59
2023-03-19T16:02:46.828Z,19.48
2023-03-19T16:05:24.165Z,19.53
2023-03-19T16:07:59.880Z,19.50
2023-03-19T16:10:40.423Z,19.44
2023-03-19T16:13:24.232Z,19.17
2023-03-19T16:16:08.627Z,19.08
2023-03-19T16:18:53.063Z,19.00
2023-03-19T16:21:21.936Z,18.99
2023-03-19T16:23:54.288Z,18.84
2023-03-19T16:26:25.714Z,18.96
2023-03-19T16:28:59.819Z,18.88
2023-03-19T16:31:29.870Z,18.58
2023-03-19T16:33:57.064Z,18.53
2023-03-19T16:36:27.802Z,18.75
2023-03-19T16:38:58.969Z,18.79
2023-03-19T16:41:25.764Z,18.82
2023-03-19T16:43:53.850Z,18.89
2023-03-19T16:46:20.766Z,18.94
2023-03-19T16:48:47.496Z,18.87
2023-03-19T16:51:18.398Z,19.00
2023-03-19T16:53:47.089Z,18.89
2023-03-19T16:56:15.980Z,18.88
2023-03-19T16:58:46.549Z,18.98
2023-03-19T17:01:18.037Z,19.04
2023-03-19T17:03:47.071Z,18.93
2023-03-19T17:06:14.982Z,18.90
2023-03-19T17:08:42.431Z,18.93
2023-03-19T17:11:31.059Z,18.74
2023-03-19T17:13:59.286Z,18.41
2023-03-19T17:16:27.620Z,18.42
2023-03-19T17:18:54.937Z,18.32
2023-03-19T17:21:25.218Z,18.24
2023-03-19T17:23:52.203Z,18.24
2023-03-19T17:26:27.824Z,18.13
2023-03-19T17:28:56.085Z,18.06
2023-03-19T17:31:31.782Z,17.85
2023-03-19T17:34:12.834Z,17.93
2023-03-19T17:36:39.983Z,18.01
2023-03-19T17:39:07.801Z,18.01
2023-03-19T17:41:35.687Z,17.91
2023-03-19T17:44:05.092Z,17.98
2023-03-19T17:46:38.144Z,17.80
2023-03-19T17:49:05.333Z,17.65
2023-03-19T17:51:32.132Z,17.57
2023-03-19T17:53:59.088Z,17.57
2023-03-19T17:56:26.199Z,17.60
2023-03-19T17:58:53.722Z,17.41
2023-03-19T18:01:23.376Z,17.31
2023-03-19T18:03:51.927Z,17.32
2023-03-19T18:06:21.700Z,17.10
2023-03-19T18:08:48.796Z,17.08
2023-03-19T18:11:15.728Z,17.15
2023-03-19T18:13:43.056Z,16.98
2023-03-19T18:16:29.952Z,17.13
2023-03-19T18:19:01.122Z,16.95
2023-03-19T18:21:29.012Z,17.00
2023-03-19T18:23:57.406Z,17.03
2023-03-19T18:26:25.431Z,16.99
2023-03-19T18:28:52.254Z,17.05
2023-03-19T18:31:24.160Z,17.00
2023-03-19T18:33:55.314Z,17.02
2023-03-19T18:36:28.379Z,17.06
2023-03-19T18:38:55.830Z,17.04
2023-03-19T18:41:24.654Z,17.00
2023-03-19T18:44:12.409Z,16.96
2023-03-19T18:46:40.900Z,16.92
2023-03-19T18:49:28.631Z,16.90
2023-03-19T18:52:02.775Z,16.88
2023-03-19T18:54:31.517Z,16.78
2023-03-19T18:57:00.264Z,16.88
2023-03-19T18:59:32.713Z,16.91
2023-03-19T19:02:12.093Z,16.91
2023-03-19T19:04:38.937Z,16.94
2023-03-19T19:07:07.084Z,16.86
2023-03-19T19:09:33.879Z,16.93
2023-03-19T19:12:02.057Z,16.93
2023-03-19T19:14:28.826Z,16.94
2023-03-19T19:16:57.041Z,16.92
2023-03-19T19:19:25.906Z,16.94
2023-03-19T19:21:53.045Z,16.95
2023-03-19T19:24:21.048Z,16.98
2023-03-19T19:26:53.370Z,16.99
2023-03-19T19:29:29.637Z,17.04
2023-03-19T19:31:56.623Z,17.04
2023-03-19T19:34:23.703Z,17.05
2023-03-19T19:36:51.244Z,17.05
2023-03-19T19:39:18.453Z,17.04
2023-03-19T19:41:46.698Z,17.08
2023-03-19T19:44:20.835Z,17.09
2023-03-19T19:46:47.895Z,17.10
2023-03-19T19:49:15.242Z,17.10
2023-03-19T19:51:42.050Z,17.07
2023-03-19T19:54:08.928Z,17.07
2023-03-19T19:56:36.462Z,17.10
2023-03-19T19:59:06.711Z,17.09
2023-03-19T20:01:33.486Z,17.06
2023-03-19T20:04:00.401Z,17.06
2023-03-19T20:06:27.639Z,17.03
2023-03-19T20:08:55.906Z,16.99
2023-03-19T20:11:24.580Z,16.85
2023-03-19T20:13:55.639Z,16.74
2023-03-19T20:16:25.954Z,16.71
2023-03-19T20:18:54.757Z,16.67
2023-03-19T20:21:22.750Z,16.73
2023-03-19T20:23:53.115Z,16.77
2023-03-19T20:26:22.477Z,16.76
2023-03-19T20:28:50.787Z,16.83
2023-03-19T20:31:25.059Z,16.84
2023-03-19T20:33:52.048Z,16.88
2023-03-19T20:36:19.618Z,16.91
2023-03-19T20:38:46.742Z,16.95
2023-03-19T20:41:29.032Z,16.95
2023-03-19T20:43:56.705Z,16.96
2023-03-19T20:46:24.700Z,17.00
2023-03-19T20:48:51.872Z,17.00
2023-03-19T20:51:23.126Z,17.05
2023-03-19T20:53:51.340Z,17.07
2023-03-19T20:56:22.136Z,17.05
2023-03-19T20:58:49.457Z,16.85
2023-03-19T21:01:17.769Z,16.80
2023-03-19T21:03:44.718Z,16.74
2023-03-19T21:06:22.771Z,16.71
2023-03-19T21:08:57.664Z,16.74
2023-03-19T21:11:40.871Z,16.76
2023-03-19T21:14:16.283Z,16.80
2023-03-19T21:16:43.063Z,16.81
2023-03-19T21:19:09.855Z,16.84
2023-03-19T21:21:38.831Z,16.87
2023-03-19T21:24:14.515Z,16.88
2023-03-19T21:26:42.559Z,16.81
2023-03-19T21:29:19.966Z,16.57
2023-03-19T21:31:47.901Z,16.46
2023-03-19T21:34:14.964Z,16.50
2023-03-19T21:36:41.849Z,16.57
2023-03-19T21:39:08.572Z,16.62
2023-03-19T21:41:36.632Z,16.65
2023-03-19T21:44:07.549Z,16.67
2023-03-19T21:46:35.166Z,16.66
2023-03-19T21:49:01.979Z,16.71
2023-03-19T21:51:29.534Z,16.72
2023-03-19T21:53:56.612Z,16.73
2023-03-19T21:56:33.457Z,16.73
2023-03-19T21:59:03.582Z,16.66
2023-03-19T22:01:30.465Z,16.68
2023-03-19T22:03:57.909Z,16.65
2023-03-19T22:06:25.786Z,16.65
2023-03-19T22:08:54.165Z,16.64
2023-03-19T22:11:32.694Z,16.59
2023-03-19T22:14:19.661Z,16.55
2023-03-19T22:16:47.780Z,16.53
2023-03-19T22:19:17.681Z,16.51
2023-03-19T22:21:44.855Z,16.50
2023-03-19T22:24:11.745Z,16.50
2023-03-19T22:26:40.848Z,16.49
2023-03-19T22:29:20.682Z,16.46
2023-03-19T22:31:52.157Z,16.43
2023-03-19T22:34:22.178Z,16.37
2023-03-19T22:36:49.663Z,16.37
2023-03-19T22:39:16.560Z,16.32
2023-03-19T22:41:46.629Z,16.35
2023-03-19T22:44:23.004Z,16.29
2023-03-19T22:46:50.253Z,16.27
2023-03-19T22:49:17.474Z,16.26
2023-03-19T22:51:44.236Z,16.24
2023-03-19T22:54:14.175Z,16.21
2023-03-19T22:56:41.075Z,16.16
2023-03-19T22:59:07.819Z,16.14
2023-03-19T23:01:43.551Z,16.09
2023-03-19T23:04:21.244Z,16.05
2023-03-19T23:06:49.441Z,16.06
2023-03-19T23:09:29.506Z,15.98
2023-03-19T23:11:57.831Z,15.93
2023-03-19T23:14:32.134Z,15.95
2023-03-19T23:17:10.302Z,15.94
2023-03-19T23:19:38.498Z,15.94
2023-03-19T23:22:07.486Z,15.90
2023-03-19T23:24:34.809Z,15.88
2023-03-19T23:27:02.459Z,15.89
2023-03-19T23:29:34.932Z,15.81
2023-03-19T23:32:01.942Z,15.81
2023-03-19T23:34:28.899Z,15.82
2023-03-19T23:36:56.754Z,15.82
2023-03-19T23:39:24.085Z,15.77
2023-03-19T23:41:54.659Z,15.75
2023-03-19T23:44:22.063Z,15.70
2023-03-19T23:46:50.810Z,15.65
2023-03-19T23:49:30.295Z,15.65
2023-03-19T23:51:57.557Z,15.61
2023-03-19T23:54:28.379Z,15.61
2023-03-19T23:56:59.935Z,15.59
2023-03-19T23:59:35.744Z,15.55
